createdAt,value
2023-05-08T00:01:58.424Z,10.90
2023-05-08T00:04:25.455Z,10.90
2023-05-08T00:06:53.131Z,11.00
2023-05-08T00:09:21.099Z,11.10
2023-05-08T00:11:47.964Z,11.10
2023-05-08T00:14:14.885Z,11.10
2023-05-08T00:16:41.872Z,11.00
2023-05-08T00:19:08.833Z,11.00
2023-05-08T00:21:35.745Z,11.00
2023-05-08T00:24:02.636Z,11.10
2023-05-08T00:26:29.540Z,11.10
2023-05-08T00:28:56.642Z,11.10
2023-05-08T00:31:24.995Z,11.10
2023-05-08T00:33:51.984Z,11.10
2023-05-08T00:36:18.894Z,11.10
2023-05-08T00:38:46.190Z,11.10
2023-05-08T00:41:13.170Z,10.90
2023-05-08T00:43:40.352Z,10.70
2023-05-08T00:46:09.903Z,10.70
2023-05-08T00:48:37.434Z,10.50
2023-05-08T00:51:07.716Z,10.60
2023-05-08T00:53:38.732Z,10.70
2023-05-08T00:56:07.131Z,10.70
2023-05-08T00:58:34.288Z,10.70
2023-05-08T01:01:01.378Z,10.70
2023-05-08T01:03:28.788Z,10.60
2023-05-08T01:05:55.761Z,10.50
2023-05-08T01:08:23.068Z,10.50
2023-05-08T01:11:15.834Z,10.60
2023-05-08T01:14:21.306Z,10.60
2023-05-08T01:17:03.235Z,10.60
2023-05-08T01:19:55.711Z,10.60
2023-05-08T01:22:44.419Z,10.50
2023-05-08T01:25:33.116Z,10.50
2023-05-08T01:28:21.151Z,10.40
2023-05-08T01:31:20.944Z,10.30
2023-05-08T01:34:05.221Z,10.30
2023-05-08T01:36:50.368Z,10.20
2023-05-08T01:39:36.077Z,10.10
2023-05-08T01:42:29.291Z,10.00
2023-05-08T01:45:03.970Z,9.90
2023-05-08T01:47:35.015Z,9.90
2023-05-08T01:50:32.412Z,9.90
2023-05-08T01:53:05.507Z,9.90
2023-05-08T01:55:36.518Z,9.70
2023-05-08T01:58:09.615Z,9.70
2023-05-08T02:00:40.911Z,9.50
2023-05-08T02:03:09.782Z,9.60
2023-05-08T02:05:41.440Z,9.60
2023-05-08T02:08:14.277Z,9.70
2023-05-08T02:10:42.625Z,9.70
2023-05-08T02:13:12.087Z,9.70
2023-05-08T02:15:42.094Z,9.80
2023-05-08T02:18:10.118Z,9.80
2023-05-08T02:20:38.948Z,9.80
2023-05-08T02:23:06.537Z,9.90
2023-05-08T02:25:35.774Z,9.90
2023-05-08T02:28:03.524Z,10.00
2023-05-08T02:30:31.289Z,9.90
2023-05-08T02:33:01.336Z,9.90
2023-05-08T02:35:31.582Z,10.00
2023-05-08T02:37:59.398Z,10.00
2023-05-08T02:40:29.102Z,10.00
2023-05-08T02:42:58.205Z,9.90
2023-05-08T02:45:29.129Z,9.90
2023-05-08T02:48:08.977Z,9.90
2023-05-08T02:51:10.712Z,9.90
2023-05-08T02:53:56.661Z,9.80
2023-05-08T02:57:05.476Z,9.90
2023-05-08T02:59:40.237Z,9.90
2023-05-08T03:02:18.188Z,9.80
2023-05-08T03:04:53.433Z,9.80
2023-05-08T03:07:23.284Z,9.80
2023-05-08T03:09:57.236Z,9.70
2023-05-08T03:12:26.859Z,9.80
2023-05-08T03:14:59.358Z,9.80
2023-05-08T03:17:30.861Z,9.90
2023-05-08T03:20:03.850Z,9.90
2023-05-08T03:22:32.868Z,9.90
2023-05-08T03:25:02.760Z,9.90
2023-05-08T03:27:30.655Z,9.80
2023-05-08T03:29:59.419Z,9.80
2023-05-08T03:32:27.993Z,9.80
2023-05-08T03:34:58.828Z,9.80
2023-05-08T03:37:28.416Z,9.90
2023-05-08T03:39:56.607Z,10.00
2023-05-08T03:42:27.474Z,10.00
2023-05-08T03:44:54.798Z,10.10
2023-05-08T03:47:22.465Z,10.20
2023-05-08T03:49:50.657Z,10.30
2023-05-08T03:52:17.602Z,10.30
2023-05-08T03:54:44.589Z,10.30
2023-05-08T03:57:11.748Z,10.40
2023-05-08T03:59:42.795Z,10.50
2023-05-08T04:02:19.869Z,10.60
2023-05-08T04:04:50.408Z,10.70
2023-05-08T04:07:36.762Z,10.80
2023-05-08T04:10:13.325Z,10.90
2023-05-08T04:13:00.128Z,10.90
2023-05-08T04:15:30.760Z,11.00
2023-05-08T04:18:14.872Z,11.10
2023-05-08T04:20:46.259Z,11.20
2023-05-08T04:23:17.262Z,11.30
2023-05-08T04:25:45.896Z,11.30
2023-05-08T04:28:12.870Z,11.40
2023-05-08T04:30:40.887Z,11.50
2023-05-08T04:33:09.148Z,11.50
2023-05-08T04:35:36.393Z,11.50
2023-05-08T04:38:03.471Z,11.60
2023-05-08T04:40:30.391Z,11.70
2023-05-08T04:42:57.530Z,11.70
2023-05-08T04:45:24.637Z,11.80
2023-05-08T04:47:51.580Z,11.80
2023-05-08T04:50:18.614Z,11.80
2023-05-08T04:52:45.537Z,11.90
2023-05-08T04:55:12.777Z,11.90
2023-05-08T04:57:39.902Z,11.90
2023-05-08T05:00:07.389Z,11.90
2023-05-08T05:02:34.283Z,11.90
2023-05-08T05:05:01.496Z,12.00
2023-05-08T05:07:28.423Z,12.00
2023-05-08T05:09:55.374Z,12.00
2023-05-08T05:12:22.240Z,12.00
2023-05-08T05:14:49.081Z,12.10
2023-05-08T05:17:15.968Z,12.00
2023-05-08T05:19:42.807Z,12.10
2023-05-08T05:22:09.757Z,12.10
2023-05-08T05:24:36.661Z,12.20
2023-05-08T05:27:04.667Z,12.20
2023-05-08T05:29:31.644Z,12.20
2023-05-08T05:31:58.635Z,12.20
2023-05-08T05:34:25.613Z,12.20
2023-05-08T05:36:52.530Z,12.30
2023-05-08T05:39:19.438Z,12.30
2023-05-08T05:41:46.302Z,12.20
2023-05-08T05:44:13.122Z,12.20
2023-05-08T05:46:42.110Z,12.20
2023-05-08T05:49:11.906Z,12.10
2023-05-08T05:51:38.739Z,12.10
2023-05-08T05:54:05.699Z,12.00
2023-05-08T05:56:32.503Z,12.00
2023-05-08T05:58:59.467Z,12.00
2023-05-08T06:01:29.092Z,12.10
2023-05-08T06:03:56.256Z,12.00
2023-05-08T06:06:23.228Z,12.00
2023-05-08T06:08:50.087Z,12.10
2023-05-08T06:11:17.189Z,12.10
2023-05-08T06:13:44.477Z,12.10
2023-05-08T06:16:12.041Z,12.30
2023-05-08T06:18:38.947Z,12.50
2023-05-08T06:21:05.954Z,12.60
2023-05-08T06:23:33.210Z,12.70
2023-05-08T06:26:00.318Z,12.80
2023-05-08T06:28:27.506Z,12.90
2023-05-08T06:30:54.463Z,13.10
2023-05-08T06:33:21.450Z,13.10
2023-05-08T06:35:48.729Z,13.30
2023-05-08T06:38:15.988Z,13.30
2023-05-08T06:40:46.654Z,13.30
2023-05-08T06:43:14.122Z,13.60
2023-05-08T06:45:41.160Z,13.80
2023-05-08T06:48:08.218Z,14.20
2023-05-08T06:50:38.127Z,14.50
2023-05-08T06:53:05.479Z,14.80
2023-05-08T06:55:32.355Z,14.90
2023-05-08T06:57:59.459Z,15.00
2023-05-08T07:00:26.547Z,15.00
2023-05-08T07:02:53.532Z,15.10
2023-05-08T07:05:20.672Z,15.70
2023-05-08T07:07:47.692Z,16.50
2023-05-08T07:10:14.528Z,17.10
2023-05-08T07:12:41.460Z,17.00
2023-05-08T07:15:21.723Z,17.20
2023-05-08T07:17:51.447Z,17.20
2023-05-08T07:20:18.466Z,18.00
2023-05-08T07:22:45.353Z,18.70
2023-05-08T07:25:12.812Z,19.50
2023-05-08T07:27:39.893Z,19.50
2023-05-08T07:30:07.491Z,19.80
2023-05-08T07:32:34.473Z,19.90
2023-05-08T07:35:03.774Z,20.10
2023-05-08T07:37:30.734Z,20.20
2023-05-08T07:39:57.773Z,20.10
2023-05-08T07:42:24.847Z,20.50
2023-05-08T07:44:54.960Z,20.10
2023-05-08T07:47:22.412Z,19.80
2023-05-08T07:49:49.411Z,19.80
2023-05-08T07:52:16.813Z,20.30
2023-05-08T07:54:44.135Z,20.80
2023-05-08T07:57:11.798Z,20.70
2023-05-08T07:59:38.831Z,20.80
2023-05-08T08:02:05.860Z,20.80
2023-05-08T08:04:33.091Z,20.40
2023-05-08T08:07:00.864Z,20.80
2023-05-08T08:09:27.826Z,21.00
2023-05-08T08:11:54.722Z,21.20
2023-05-08T08:14:21.681Z,21.40
2023-05-08T08:16:48.698Z,21.80
2023-05-08T08:19:15.613Z,22.40
2023-05-08T08:21:45.061Z,22.30
2023-05-08T08:24:11.968Z,22.00
2023-05-08T08:26:38.987Z,22.00
2023-05-08T08:29:05.840Z,22.00
2023-05-08T08:31:32.795Z,21.60
2023-05-08T08:33:59.871Z,21.70
2023-05-08T08:36:26.901Z,22.20
2023-05-08T08:38:53.973Z,22.70
2023-05-08T08:41:21.907Z,23.10
2023-05-08T08:43:48.780Z,23.50
2023-05-08T08:46:16.638Z,23.40
2023-05-08T08:48:45.978Z,22.70
2023-05-08T08:51:24.525Z,22.70
2023-05-08T08:54:00.463Z,22.60
2023-05-08T08:56:28.098Z,22.70
2023-05-08T08:58:59.335Z,23.10
2023-05-08T09:01:29.347Z,23.50
2023-05-08T09:03:59.981Z,24.00
2023-05-08T09:06:27.842Z,24.00
2023-05-08T09:08:58.873Z,23.60
2023-05-08T09:11:25.978Z,23.10
2023-05-08T09:13:53.111Z,22.50
2023-05-08T09:16:20.096Z,22.40
2023-05-08T09:18:47.059Z,22.40
2023-05-08T09:21:14.118Z,22.20
2023-05-08T09:24:00.685Z,22.30
2023-05-08T09:26:38.689Z,22.40
2023-05-08T09:29:16.557Z,22.60
2023-05-08T09:31:49.518Z,22.30
2023-05-08T09:34:25.232Z,22.70
2023-05-08T09:36:52.212Z,23.50
2023-05-08T09:39:26.002Z,23.80
2023-05-08T09:42:00.829Z,23.80
2023-05-08T09:44:28.144Z,23.40
2023-05-08T09:47:14.866Z,22.60
2023-05-08T09:50:01.968Z,22.30
2023-05-08T09:52:29.530Z,22.50
2023-05-08T09:55:02.233Z,22.10
2023-05-08T09:57:31.607Z,21.60
2023-05-08T10:00:10.430Z,21.40
2023-05-08T10:02:38.763Z,21.50
2023-05-08T10:05:32.737Z,21.30
2023-05-08T10:08:19.393Z,21.10
2023-05-08T10:10:46.654Z,20.50
2023-05-08T10:13:14.198Z,19.80
2023-05-08T10:15:45.773Z,19.80
2023-05-08T10:18:13.888Z,19.80
2023-05-08T10:20:44.532Z,20.00
2023-05-08T10:23:15.606Z,20.20
2023-05-08T10:25:47.218Z,20.30
2023-05-08T10:28:18.911Z,20.20
2023-05-08T10:30:50.124Z,20.30
2023-05-08T10:33:25.000Z,20.00
2023-05-08T10:35:52.099Z,19.90
2023-05-08T10:38:20.216Z,20.20
2023-05-08T10:40:50.636Z,20.30
2023-05-08T10:43:18.752Z,20.00
2023-05-08T10:45:46.127Z,20.00
2023-05-08T10:48:31.443Z,20.00
2023-05-08T10:51:02.334Z,19.70
2023-05-08T10:53:36.191Z,19.50
2023-05-08T10:56:03.669Z,19.50
2023-05-08T10:58:32.051Z,19.30
2023-05-08T11:01:07.406Z,19.60
2023-05-08T11:03:46.562Z,19.70
2023-05-08T11:06:13.988Z,19.50
2023-05-08T11:08:51.963Z,19.60
2023-05-08T11:11:35.700Z,19.70
2023-05-08T11:14:08.769Z,20.00
2023-05-08T11:16:53.916Z,19.80
2023-05-08T11:19:27.206Z,19.60
2023-05-08T11:22:24.926Z,19.60
2023-05-08T11:24:56.403Z,19.60
2023-05-08T11:27:36.141Z,19.70
2023-05-08T11:30:23.652Z,20.10
2023-05-08T11:33:05.735Z,20.30
2023-05-08T11:35:45.155Z,19.80
2023-05-08T11:38:23.384Z,19.70
2023-05-08T11:41:10.228Z,19.70
2023-05-08T11:44:01.190Z,19.50
2023-05-08T11:46:53.717Z,19.50
2023-05-08T11:49:26.978Z,19.30
2023-05-08T11:51:59.259Z,19.20
2023-05-08T11:54:30.789Z,19.20
2023-05-08T11:56:59.613Z,19.10
2023-05-08T11:59:26.787Z,19.10
2023-05-08T12:02:06.860Z,19.40
2023-05-08T12:04:47.152Z,19.60
2023-05-08T12:07:14.409Z,19.60
2023-05-08T12:09:41.584Z,19.50
2023-05-08T12:12:08.618Z,19.60
2023-05-08T12:14:35.552Z,19.60
2023-05-08T12:17:03.069Z,19.60
2023-05-08T12:19:30.103Z,19.60
2023-05-08T12:21:58.201Z,19.60
2023-05-08T12:24:26.859Z,19.90
2023-05-08T12:26:55.878Z,19.90
2023-05-08T12:29:23.172Z,19.90
2023-05-08T12:31:50.379Z,19.90
2023-05-08T12:34:17.693Z,19.80
2023-05-08T12:36:44.607Z,19.70
2023-05-08T12:39:13.473Z,19.70
2023-05-08T12:41:46.981Z,19.70
2023-05-08T12:44:18.451Z,19.70
2023-05-08T12:46:54.600Z,19.60
2023-05-08T12:49:29.229Z,19.50
2023-05-08T12:52:09.142Z,19.50
2023-05-08T12:54:41.395Z,19.50
2023-05-08T12:57:16.761Z,19.60
2023-05-08T12:59:45.061Z,19.50
2023-05-08T13:02:24.024Z,19.50
2023-05-08T13:04:56.159Z,19.60
2023-05-08T13:07:23.272Z,19.90
2023-05-08T13:09:58.616Z,19.90
2023-05-08T13:12:25.775Z,19.50
2023-05-08T13:14:52.607Z,19.60
2023-05-08T13:17:19.795Z,19.80
2023-05-08T13:19:46.642Z,19.80
2023-05-08T13:22:13.452Z,19.80
2023-05-08T13:24:40.357Z,20.00
2023-05-08T13:27:07.631Z,19.90
2023-05-08T13:29:34.547Z,19.80
2023-05-08T13:32:01.501Z,19.70
2023-05-08T13:34:28.455Z,19.50
2023-05-08T13:36:55.370Z,19.50
2023-05-08T13:39:22.348Z,19.70
2023-05-08T13:41:49.296Z,19.80
2023-05-08T13:44:16.134Z,19.80
2023-05-08T13:46:43.050Z,19.80
2023-05-08T13:49:10.259Z,19.90
2023-05-08T13:51:37.227Z,19.90
2023-05-08T13:54:04.130Z,20.00
2023-05-08T13:56:31.010Z,19.90
2023-05-08T13:58:57.919Z,19.80
2023-05-08T14:01:26.909Z,20.00
2023-05-08T14:03:55.564Z,20.00
2023-05-08T14:06:22.750Z,19.90
2023-05-08T14:08:52.181Z,19.70
2023-05-08T14:11:22.402Z,19.60
2023-05-08T14:13:49.315Z,19.70
2023-05-08T14:16:16.465Z,19.70
2023-05-08T14:18:43.390Z,19.80
2023-05-08T14:21:10.226Z,19.80
2023-05-08T14:23:38.798Z,19.70
2023-05-08T14:26:05.665Z,19.60
2023-05-08T14:28:32.614Z,19.40
2023-05-08T14:30:59.584Z,19.40
2023-05-08T14:33:26.526Z,19.40
2023-05-08T14:35:53.428Z,19.30
2023-05-08T14:38:20.294Z,19.30
2023-05-08T14:40:50.895Z,19.30
2023-05-08T14:43:18.395Z,19.40
2023-05-08T14:45:45.243Z,19.50
2023-05-08T14:48:12.422Z,19.50
2023-05-08T14:50:39.332Z,19.60
2023-05-08T14:53:06.405Z,19.60
2023-05-08T14:55:33.556Z,19.60
2023-05-08T14:58:00.642Z,19.50
2023-05-08T15:00:27.606Z,19.40
2023-05-08T15:02:54.553Z,19.30
2023-05-08T15:05:22.077Z,19.30
2023-05-08T15:07:50.252Z,19.10
2023-05-08T15:10:17.324Z,19.10
2023-05-08T15:12:44.257Z,19.10
2023-05-08T15:15:11.485Z,19.10
2023-05-08T15:17:41.551Z,19.10
2023-05-08T15:20:11.888Z,19.00
2023-05-08T15:22:38.860Z,19.00
2023-05-08T15:25:06.639Z,19.00
2023-05-08T15:27:33.510Z,18.90
2023-05-08T15:30:00.511Z,19.10
2023-05-08T15:32:27.451Z,19.10
2023-05-08T15:34:54.331Z,19.10
2023-05-08T15:37:21.275Z,19.10
2023-05-08T15:39:49.858Z,18.90
2023-05-08T15:42:18.024Z,18.80
2023-05-08T15:47:14.633Z,18.80
2023-05-08T15:49:41.631Z,18.80
2023-05-08T15:52:08.505Z,18.80
2023-05-08T15:54:35.406Z,18.70
2023-05-08T15:57:02.267Z,18.60
2023-05-08T15:59:29.382Z,18.40
2023-05-08T16:01:56.227Z,18.30
2023-05-08T16:04:23.109Z,18.20
2023-05-08T16:06:49.984Z,18.10
2023-05-08T16:09:16.837Z,18.10
2023-05-08T16:11:43.719Z,18.10
2023-05-08T16:14:10.738Z,18.10
2023-05-08T16:16:39.563Z,17.90
2023-05-08T16:19:06.531Z,17.80
2023-05-08T16:21:33.363Z,17.70
2023-05-08T16:24:00.599Z,17.60
2023-05-08T16:26:27.636Z,17.50
2023-05-08T16:28:54.551Z,17.40
2023-05-08T16:31:21.444Z,17.30
2023-05-08T16:33:48.335Z,17.30
2023-05-08T16:36:15.192Z,17.20
2023-05-08T16:38:42.028Z,17.10
2023-05-08T16:41:10.224Z,17.10
2023-05-08T16:43:37.222Z,16.90
2023-05-08T16:46:07.208Z,16.60
2023-05-08T16:48:34.516Z,16.60
2023-05-08T16:51:01.433Z,16.40
2023-05-08T16:53:28.427Z,16.30
2023-05-08T16:55:55.467Z,16.30
2023-05-08T16:58:22.964Z,16.20
2023-05-08T17:00:50.057Z,16.20
2023-05-08T17:03:17.085Z,16.10
2023-05-08T17:05:44.165Z,16.00
2023-05-08T17:08:11.918Z,16.00
2023-05-08T17:10:39.677Z,15.90
2023-05-08T17:13:06.694Z,15.90
2023-05-08T17:15:33.766Z,15.70
2023-05-08T17:18:00.703Z,15.50
2023-05-08T17:20:27.654Z,15.30
2023-05-08T17:22:54.596Z,15.10
2023-05-08T17:25:22.676Z,15.10
2023-05-08T17:27:49.758Z,15.00
2023-05-08T17:30:17.024Z,14.90
2023-05-08T17:32:44.058Z,14.80
2023-05-08T17:35:11.033Z,14.70
2023-05-08T17:37:37.962Z,14.70
2023-05-08T17:40:05.352Z,14.50
2023-05-08T17:42:32.230Z,14.40
2023-05-08T17:44:59.384Z,14.30
2023-05-08T17:47:26.333Z,14.20
2023-05-08T17:49:53.240Z,14.10
2023-05-08T17:52:20.101Z,14.00
2023-05-08T17:54:47.140Z,13.90
2023-05-08T17:57:13.960Z,13.90
2023-05-08T17:59:40.819Z,13.80
2023-05-08T18:02:07.766Z,13.80
2023-05-08T18:04:34.690Z,13.70
2023-05-08T18:07:01.762Z,13.60
2023-05-08T18:09:28.789Z,13.60
2023-05-08T18:12:02.122Z,13.50
2023-05-08T18:14:32.509Z,13.40
2023-05-08T18:17:00.321Z,13.30
2023-05-08T18:19:27.339Z,13.30
2023-05-08T18:21:54.211Z,13.20
2023-05-08T18:24:21.219Z,13.10
2023-05-08T18:26:49.301Z,13.10
2023-05-08T18:29:17.822Z,13.00
2023-05-08T18:31:45.070Z,13.00
2023-05-08T18:34:12.145Z,12.90
2023-05-08T18:36:39.177Z,12.80
2023-05-08T18:39:06.058Z,12.80
2023-05-08T18:41:32.928Z,12.80
2023-05-08T18:44:05.378Z,12.70
2023-05-08T18:46:32.676Z,12.60
2023-05-08T18:49:00.060Z,12.70
2023-05-08T18:51:27.443Z,12.60
2023-05-08T18:53:57.254Z,12.50
2023-05-08T18:56:24.340Z,12.50
2023-05-08T18:58:51.583Z,12.40
2023-05-08T19:01:20.293Z,12.40
2023-05-08T19:03:48.743Z,12.30
2023-05-08T19:06:16.276Z,12.30
2023-05-08T19:08:44.478Z,12.30
2023-05-08T19:11:11.449Z,12.20
2023-05-08T19:13:38.736Z,12.20
2023-05-08T19:16:06.065Z,12.10
2023-05-08T19:18:33.187Z,12.10
2023-05-08T19:21:01.538Z,12.10
2023-05-08T19:23:28.702Z,12.00
2023-05-08T19:25:55.574Z,12.00
2023-05-08T19:28:22.771Z,12.00
2023-05-08T19:30:49.747Z,11.90
2023-05-08T19:33:20.545Z,11.90
2023-05-08T19:35:48.770Z,11.90
2023-05-08T19:38:16.309Z,11.90
2023-05-08T19:40:55.700Z,11.80
2023-05-08T19:43:25.171Z,11.80
2023-05-08T19:45:52.283Z,11.80
2023-05-08T19:48:20.229Z,11.80
2023-05-08T19:50:47.341Z,11.70
2023-05-08T19:53:14.422Z,11.70
2023-05-08T19:55:41.319Z,11.70
2023-05-08T19:58:08.228Z,11.70
2023-05-08T20:00:35.452Z,11.60
2023-05-08T20:03:02.507Z,11.60
2023-05-08T20:05:29.457Z,11.60
2023-05-08T20:07:57.025Z,11.50
2023-05-08T20:10:24.038Z,11.40
2023-05-08T20:12:51.004Z,11.40
2023-05-08T20:15:18.044Z,11.40
2023-05-08T20:17:45.000Z,11.40
2023-05-08T20:20:12.471Z,11.40
2023-05-08T20:22:39.486Z,11.30
2023-05-08T20:25:06.852Z,11.30
2023-05-08T20:27:33.765Z,11.20
2023-05-08T20:30:00.872Z,11.30
2023-05-08T20:32:27.773Z,11.20
2023-05-08T20:34:54.752Z,11.20
2023-05-08T20:37:21.646Z,11.20
2023-05-08T20:39:48.587Z,11.10
2023-05-08T20:42:15.432Z,11.10
2023-05-08T20:44:42.329Z,11.10
2023-05-08T20:47:09.227Z,11.10
2023-05-08T20:49:36.113Z,11.00
2023-05-08T20:52:04.428Z,11.00
2023-05-08T20:54:31.642Z,11.00
2023-05-08T20:56:59.444Z,11.00
2023-05-08T20:59:26.316Z,11.00
2023-05-08T21:01:53.165Z,11.00
2023-05-08T21:04:20.081Z,11.00
2023-05-08T21:06:46.982Z,10.90
2023-05-08T21:09:13.803Z,10.90
2023-05-08T21:11:40.660Z,10.90
2023-05-08T21:14:07.536Z,10.80
2023-05-08T21:16:34.424Z,10.80
2023-05-08T21:19:01.929Z,10.80
2023-05-08T21:21:28.814Z,10.80
2023-05-08T21:23:55.754Z,10.70
2023-05-08T21:26:23.801Z,10.70
2023-05-08T21:28:52.531Z,10.70
2023-05-08T21:31:20.084Z,10.70
2023-05-08T21:33:47.045Z,10.70
2023-05-08T21:36:14.138Z,10.70
2023-05-08T21:38:41.621Z,10.60
2023-05-08T21:41:09.027Z,10.60
2023-05-08T21:43:36.855Z,10.50
2023-05-08T21:46:05.500Z,10.50
2023-05-08T21:48:33.262Z,10.60
2023-05-08T21:51:00.312Z,10.60
2023-05-08T21:53:27.404Z,10.60
2023-05-08T21:55:54.286Z,10.60
2023-05-08T21:58:21.214Z,10.60
2023-05-08T22:00:48.196Z,10.50
2023-05-08T22:03:15.174Z,10.50
2023-05-08T22:05:42.132Z,10.30
2023-05-08T22:08:09.082Z,10.20
2023-05-08T22:10:36.066Z,10.10
2023-05-08T22:13:03.263Z,10.10
2023-05-08T22:15:30.927Z,10.10
2023-05-08T22:17:59.492Z,10.10
2023-05-08T22:20:26.637Z,10.10
2023-05-08T22:22:53.553Z,10.10
2023-05-08T22:25:22.006Z,10.00
2023-05-08T22:27:49.077Z,10.00
2023-05-08T22:30:16.074Z,10.00
2023-05-08T22:32:42.998Z,10.00
2023-05-08T22:35:10.196Z,9.90
2023-05-08T22:37:37.070Z,9.90
2023-05-08T22:40:04.179Z,9.90
2023-05-08T22:42:31.084Z,9.90
2023-05-08T22:44:58.074Z,9.80
2023-05-08T22:47:25.998Z,9.70
2023-05-08T22:49:53.227Z,9.60
2023-05-08T22:52:20.129Z,9.60
2023-05-08T22:54:46.967Z,9.70
2023-05-08T22:57:14.354Z,9.60
2023-05-08T22:59:41.231Z,9.60
2023-05-08T23:02:08.252Z,9.60
2023-05-08T23:04:35.178Z,9.50
2023-05-08T23:07:02.369Z,9.50
2023-05-08T23:09:30.907Z,9.60
2023-05-08T23:11:57.822Z,9.50
2023-05-08T23:14:24.758Z,9.50
2023-05-08T23:16:51.685Z,9.50
2023-05-08T23:19:18.744Z,9.40
2023-05-08T23:21:45.637Z,9.50
2023-05-08T23:24:12.532Z,9.40
2023-05-08T23:26:41.938Z,9.40
2023-05-08T23:29:09.134Z,9.30
2023-05-08T23:31:36.128Z,9.20
2023-05-08T23:34:03.026Z,9.10
2023-05-08T23:36:29.895Z,9.10
2023-05-08T23:38:56.793Z,9.10
2023-05-08T23:41:24.210Z,9.10
2023-05-08T23:43:51.125Z,9.10
2023-05-08T23:46:18.028Z,9.20
2023-05-08T23:48:44.895Z,9.30
2023-05-08T23:51:11.767Z,9.20
2023-05-08T23:53:38.618Z,9.20
2023-05-08T23:56:06.005Z,9.10
2023-05-08T23:58:32.930Z,9.00
